Time;durP1;ratioP1;P1;durP2;ratioP2;P2;SDS_P1;SDS_P2;PMS_P1;PMS_P2;Temp;Humidity;BMP_temperature;BMP_pressure;BME280_temperature;BME280_humidity;BME280_pressure;Samples;Min_cycle;Max_cycle;Signal;HPM_P1;HPM_P2
2022/11/30 00:00:19;;;;;;;37.03;17.70;;;7.90;1.00;;;;;;5079894;28;20430;-64
2022/11/30 00:02:45;;;;;;;40.88;17.67;;;7.90;1.00;;;;;;5088514;28;20746;-64
2022/11/30 00:05:12;;;;;;;36.13;17.40;;;8.60;1.00;;;;;;5041324;28;20944;-64
2022/11/30 00:07:38;;;;;;;43.13;16.92;;;7.90;1.00;;;;;;5084644;28;20391;-64
2022/11/30 00:10:04;;;;;;;37.47;17.25;;;7.80;1.00;;;;;;5083390;28;20374;-65
2022/11/30 00:12:30;;;;;;;44.92;19.55;;;7.80;1.00;;;;;;5075915;28;20381;-64
2022/11/30 00:14:56;;;;;;;40.20;17.23;;;7.90;1.00;;;;;;5089211;28;20919;-65
2022/11/30 00:17:21;;;;;;;43.43;17.53;;;7.80;1.00;;;;;;5076688;28;20413;-65
2022/11/30 00:19:47;;;;;;;42.53;17.50;;;7.90;1.00;;;;;;5081774;28;20743;-64
2022/11/30 00:22:13;;;;;;;44.30;19.13;;;7.80;1.00;;;;;;5080234;28;20395;-65
2022/11/30 00:24:38;;;;;;;42.38;19.33;;;7.70;1.00;;;;;;5087048;28;20378;-64
2022/11/30 00:27:04;;;;;;;46.70;18.50;;;7.80;1.00;;;;;;5057440;28;20891;-64
2022/11/30 00:29:29;;;;;;;43.95;19.00;;;7.80;1.00;;;;;;5085381;28;20376;-64
2022/11/30 00:31:55;;;;;;;38.80;17.93;;;7.80;1.00;;;;;;5080736;28;20461;-64
2022/11/30 00:34:20;;;;;;;48.30;18.35;;;7.70;1.00;;;;;;5078158;28;20447;-64
2022/11/30 00:36:46;;;;;;;45.93;17.70;;;7.70;1.00;;;;;;5088425;28;20410;-64
2022/11/30 00:39:12;;;;;;;46.05;18.80;;;7.70;1.00;;;;;;5075544;28;20414;-65
2022/11/30 00:41:37;;;;;;;39.73;16.70;;;7.60;1.00;;;;;;5083615;28;21187;-65
2022/11/30 00:44:03;;;;;;;47.63;19.30;;;7.60;1.00;;;;;;5071834;28;20865;-65
2022/11/30 00:46:29;;;;;;;45.00;18.67;;;7.60;1.00;;;;;;5085339;28;20464;-65
2022/11/30 00:48:54;;;;;;;43.90;18.10;;;7.70;1.00;;;;;;5074893;28;20380;-64
2022/11/30 00:51:20;;;;;;;45.88;19.42;;;7.70;1.00;;;;;;5086700;28;20877;-65
2022/11/30 00:53:49;;;;;;;45.63;18.43;;;7.70;1.00;;;;;;5076851;28;20380;-65
2022/11/30 00:56:14;;;;;;;43.15;19.05;;;9.00;1.00;;;;;;5083908;28;20427;-64
2022/11/30 00:58:40;;;;;;;41.73;18.60;;;7.70;1.00;;;;;;5074666;28;20386;-65
2022/11/30 01:01:06;;;;;;;43.20;18.35;;;7.80;1.00;;;;;;5083587;28;20392;-64
2022/11/30 01:03:32;;;;;;;42.70;19.77;;;7.80;1.00;;;;;;5059085;28;20444;-65
2022/11/30 01:06:07;;;;;;;45.70;19.33;;;7.80;1.00;;;;;;5081477;28;20440;-64
2022/11/30 01:08:33;;;;;;;43.70;19.67;;;7.70;1.00;;;;;;5085340;28;20434;-64
2022/11/30 01:11:13;;;;;;;46.30;19.15;;;7.70;1.00;;;;;;5074589;28;20408;-65
2022/11/30 01:13:39;;;;;;;52.08;19.73;;;7.70;1.00;;;;;;5083133;28;20387;-64
2022/11/30 01:16:18;;;;;;;46.03;20.23;;;7.70;1.00;;;;;;5082093;28;20382;-65
2022/11/30 01:18:44;;;;;;;42.35;18.30;;;7.60;1.00;;;;;;5074219;28;20427;-64
2022/11/30 01:21:13;;;;;;;44.35;19.35;;;9.10;1.00;;;;;;5058239;28;20811;-64
2022/11/30 01:23:39;;;;;;;39.83;17.50;;;7.70;1.00;;;;;;5082879;28;20467;-64
2022/11/30 01:26:06;;;;;;;49.90;19.55;;;7.70;1.00;;;;;;5081833;28;20374;-65
2022/11/30 01:28:31;;;;;;;45.55;19.75;;;7.70;1.00;;;;;;5075536;28;20380;-65
2022/11/30 01:30:59;;;;;;;40.90;18.00;;;7.70;1.00;;;;;;5087415;28;20381;-65
2022/11/30 01:33:24;;;;;;;47.27;18.60;;;8.10;1.00;;;;;;5075108;28;20447;-64
2022/11/30 01:36:01;;;;;;;43.05;18.75;;;8.30;1.00;;;;;;5087892;28;20386;-64
2022/11/30 01:38:32;;;;;;;44.25;18.55;;;8.00;1.00;;;;;;5075750;28;20438;-64
2022/11/30 01:40:57;;;;;;;43.50;19.25;;;7.60;1.00;;;;;;5087303;28;20375;-65
2022/11/30 01:43:46;;;;;;;43.00;18.33;;;9.10;1.00;;;;;;5075346;28;20456;-65
2022/11/30 01:46:26;;;;;;;41.30;18.38;;;7.60;1.00;;;;;;5078855;28;20399;-64
2022/11/30 01:49:17;;;;;;;42.75;18.50;;;7.70;1.00;;;;;;5087139;28;20382;-64
2022/11/30 01:51:50;;;;;;;43.28;18.52;;;7.70;1.00;;;;;;5068640;28;20580;-64
2022/11/30 01:54:23;;;;;;;41.17;19.23;;;7.60;1.00;;;;;;5083409;28;20389;-64
2022/11/30 01:56:53;;;;;;;39.90;17.90;;;8.70;1.00;;;;;;5073623;28;20411;-64
2022/11/30 01:59:22;;;;;;;41.60;18.10;;;7.70;1.00;;;;;;5085942;28;20392;-64
2022/11/30 02:01:48;;;;;;;41.00;18.00;;;8.80;1.00;;;;;;5078555;28;20382;-64
2022/11/30 02:04:31;;;;;;;42.30;18.67;;;7.70;1.00;;;;;;5077924;28;20797;-64
2022/11/30 02:06:58;;;;;;;37.05;15.95;;;7.70;1.00;;;;;;5086549;28;20390;-65
2022/11/30 02:09:25;;;;;;;38.33;17.52;;;7.70;1.00;;;;;;5074748;28;20386;-64
2022/11/30 02:11:51;;;;;;;41.72;18.35;;;9.20;1.00;;;;;;5080987;28;20423;-64
2022/11/30 02:14:35;;;;;;;39.25;16.17;;;7.70;1.00;;;;;;5082799;28;20409;-64
2022/11/30 02:17:15;;;;;;;37.97;17.33;;;7.70;1.00;;;;;;5073120;28;20458;-65
2022/11/30 02:19:53;;;;;;;41.37;17.80;;;7.70;1.00;;;;;;5081640;28;20388;-64
2022/11/30 02:22:59;;;;;;;37.35;16.70;;;7.70;1.00;;;;;;5082978;28;20863;-64
2022/11/30 02:25:51;;;;;;;38.08;16.27;;;7.60;1.00;;;;;;5059972;28;20382;-64
2022/11/30 02:28:35;;;;;;;38.08;15.85;;;7.60;1.00;;;;;;5077241;28;20384;-64
2022/11/30 02:31:04;;;;;;;38.08;16.92;;;7.60;1.00;;;;;;5086433;28;20390;-64
2022/11/30 02:33:31;;;;;;;41.35;17.73;;;7.60;1.00;;;;;;5074557;28;20386;-64
2022/11/30 02:35:59;;;;;;;40.67;17.95;;;7.50;1.00;;;;;;5079709;28;20387;-64
2022/11/30 02:38:26;;;;;;;34.67;16.23;;;9.00;1.00;;;;;;5082597;28;20390;-64
2022/11/30 02:40:52;;;;;;;38.17;16.40;;;7.60;1.00;;;;;;5072949;28;20387;-64
2022/11/30 02:43:21;;;;;;;38.83;15.25;;;7.60;1.00;;;;;;5085017;28;20372;-64
2022/11/30 02:46:34;;;;;;;36.72;17.25;;;7.60;1.00;;;;;;5077999;28;20382;-65
2022/11/30 02:49:10;;;;;;;34.78;15.57;;;7.70;1.00;;;;;;4971393;28;20451;-65
2022/11/30 02:51:38;;;;;;;39.55;17.15;;;8.10;1.00;;;;;;4980200;28;20404;-65
2022/11/30 02:54:04;;;;;;;37.03;17.15;;;7.60;1.00;;;;;;5034598;28;20473;-65
2022/11/30 02:56:30;;;;;;;36.47;16.50;;;7.70;1.00;;;;;;5073627;28;20905;-65
2022/11/30 02:58:56;;;;;;;42.45;17.38;;;7.80;1.00;;;;;;5085718;28;20536;-65
2022/11/30 03:01:21;;;;;;;35.27;16.50;;;7.90;1.00;;;;;;5074099;28;20469;-65
2022/11/30 03:03:47;;;;;;;32.15;15.68;;;7.80;1.00;;;;;;5062353;28;20403;-65
2022/11/30 03:06:12;;;;;;;34.33;15.57;;;7.80;1.00;;;;;;5081856;28;20386;-65
2022/11/30 03:08:38;;;;;;;36.42;15.32;;;8.20;1.00;;;;;;5072954;28;20889;-65
2022/11/30 03:11:04;;;;;;;33.27;15.90;;;9.40;1.00;;;;;;5086038;28;20381;-65
2022/11/30 03:13:31;;;;;;;37.43;15.17;;;7.80;1.00;;;;;;5074785;28;20384;-65
2022/11/30 03:15:57;;;;;;;32.22;15.30;;;7.80;1.00;;;;;;5079935;28;20848;-64
2022/11/30 03:18:22;;;;;;;33.20;14.25;;;7.80;1.00;;;;;;5082563;28;20374;-65
2022/11/30 03:20:48;;;;;;;35.53;16.07;;;7.80;1.00;;;;;;5072624;28;20721;-65
2022/11/30 03:23:13;;;;;;;33.85;14.30;;;7.80;1.00;;;;;;5085435;28;20376;-65
2022/11/30 03:25:39;;;;;;;34.33;15.03;;;7.80;1.00;;;;;;5076072;28;21188;-65
2022/11/30 03:28:05;;;;;;;30.35;15.55;;;7.80;1.00;;;;;;5078165;28;20464;-65
2022/11/30 03:30:30;;;;;;;31.40;14.80;;;7.70;1.00;;;;;;5083293;28;20386;-65
2022/11/30 03:32:56;;;;;;;32.03;14.13;;;7.70;1.00;;;;;;5071486;28;21182;-65
2022/11/30 03:35:21;;;;;;;30.83;15.07;;;7.50;1.00;;;;;;5084025;28;20954;-65
2022/11/30 03:37:47;;;;;;;34.00;14.43;;;7.90;1.00;;;;;;5077870;28;20405;-65
2022/11/30 03:40:13;;;;;;;30.23;14.23;;;7.60;1.00;;;;;;5077150;28;20686;-65
2022/11/30 03:42:38;;;;;;;32.50;15.07;;;7.60;1.00;;;;;;5084161;28;20439;-65
2022/11/30 03:45:05;;;;;;;33.87;15.47;;;7.70;1.00;;;;;;5072576;28;20387;-65
2022/11/30 03:47:30;;;;;;;31.08;14.27;;;7.70;1.00;;;;;;5082011;28;20489;-65
2022/11/30 03:49:56;;;;;;;32.75;15.32;;;7.80;1.00;;;;;;5078665;28;20374;-65
2022/11/30 03:52:21;;;;;;;32.90;14.70;;;8.00;1.00;;;;;;5075637;28;20395;-65
2022/11/30 03:54:47;;;;;;;29.52;13.90;;;7.70;1.00;;;;;;5085178;28;20428;-65
2022/11/30 03:57:13;;;;;;;30.40;13.97;;;7.60;1.00;;;;;;5072394;28;20500;-65
2022/11/30 03:59:38;;;;;;;32.25;14.88;;;7.60;1.00;;;;;;5081251;28;20388;-65
2022/11/30 04:02:04;;;;;;;33.30;13.80;;;7.60;1.00;;;;;;5067711;28;20439;-65
2022/11/30 04:04:29;;;;;;;34.30;15.07;;;7.70;1.00;;;;;;5068606;28;20396;-65
2022/11/30 04:06:55;;;;;;;32.80;15.03;;;7.70;1.00;;;;;;5087209;28;20401;-65
2022/11/30 04:09:20;;;;;;;28.27;13.45;;;7.60;1.00;;;;;;5077035;28;20389;-65
2022/11/30 04:11:46;;;;;;;30.93;13.60;;;7.60;1.00;;;;;;5080484;28;20827;-65
2022/11/30 04:14:12;;;;;;;30.92;13.93;;;7.70;1.00;;;;;;5080678;28;20425;-65
2022/11/30 04:16:37;;;;;;;29.97;13.67;;;7.70;1.00;;;;;;5087329;28;20493;-65
2022/11/30 04:19:03;;;;;;;30.98;14.00;;;7.80;1.00;;;;;;5075867;28;20452;-65
2022/11/30 04:21:29;;;;;;;30.97;14.13;;;8.20;1.00;;;;;;5085739;28;20372;-65
2022/11/30 04:23:54;;;;;;;29.65;14.15;;;7.70;1.00;;;;;;5082041;28;20461;-65
2022/11/30 04:26:20;;;;;;;28.45;13.77;;;7.60;1.00;;;;;;5079134;28;20466;-65
2022/11/30 04:28:45;;;;;;;28.30;13.50;;;8.60;1.00;;;;;;5085476;28;20944;-65
2022/11/30 04:31:11;;;;;;;30.33;13.13;;;7.60;1.00;;;;;;5085175;28;20393;-65
2022/11/30 04:33:37;;;;;;;29.73;13.02;;;7.60;1.00;;;;;;5083142;28;20842;-64
2022/11/30 04:36:05;;;;;;;30.48;13.18;;;7.90;1.00;;;;;;5081543;28;20388;-65
2022/11/30 04:38:31;;;;;;;29.95;14.20;;;7.70;1.00;;;;;;5085884;28;20378;-65
2022/11/30 04:40:57;;;;;;;30.02;13.73;;;7.70;1.00;;;;;;5074600;28;20861;-65
2022/11/30 04:43:24;;;;;;;28.52;12.68;;;7.80;1.00;;;;;;5080901;28;20378;-65
2022/11/30 04:45:50;;;;;;;29.70;13.93;;;7.40;1.00;;;;;;5082690;28;20382;-65
2022/11/30 04:48:17;;;;;;;28.05;13.13;;;7.80;1.00;;;;;;5084674;28;20390;-65
2022/11/30 04:50:42;;;;;;;25.65;12.57;;;7.70;1.00;;;;;;5073759;28;20461;-66
2022/11/30 04:53:08;;;;;;;28.37;13.13;;;7.80;1.00;;;;;;5086633;28;20378;-65
2022/11/30 04:55:36;;;;;;;27.70;13.77;;;7.80;1.00;;;;;;5084313;28;20433;-65
2022/11/30 04:58:03;;;;;;;26.50;12.57;;;8.00;1.00;;;;;;5082353;28;20440;-65
2022/11/30 05:00:29;;;;;;;28.83;12.80;;;7.60;1.00;;;;;;5074669;28;20447;-65
2022/11/30 05:02:55;;;;;;;26.20;12.50;;;7.60;1.00;;;;;;5074691;28;20787;-65
2022/11/30 05:05:21;;;;;;;31.30;12.77;;;7.70;1.00;;;;;;5086420;28;20410;-65
2022/11/30 05:07:54;;;;;;;24.43;11.90;;;7.70;1.00;;;;;;5079347;28;20917;-65
2022/11/30 05:10:20;;;;;;;28.93;13.63;;;7.80;1.00;;;;;;5058570;28;20810;-65
2022/11/30 05:12:46;;;;;;;28.37;12.30;;;7.70;1.00;;;;;;5087286;28;20425;-65
2022/11/30 05:15:11;;;;;;;24.92;12.02;;;8.60;1.00;;;;;;5075013;28;20399;-65
2022/11/30 05:17:38;;;;;;;27.10;13.27;;;7.70;1.00;;;;;;5082951;28;20408;-64
2022/11/30 05:20:04;;;;;;;26.20;12.27;;;7.70;1.00;;;;;;5075805;28;20431;-64
2022/11/30 05:22:29;;;;;;;27.37;11.70;;;7.60;1.00;;;;;;5085104;28;20378;-64
2022/11/30 05:24:55;;;;;;;24.10;11.23;;;8.30;1.00;;;;;;5067192;28;20416;-64
2022/11/30 05:27:21;;;;;;;28.23;12.27;;;7.60;1.00;;;;;;5070104;28;20438;-65
2022/11/30 05:29:46;;;;;;;25.60;11.60;;;7.60;1.00;;;;;;5066353;28;20386;-64
2022/11/30 05:32:12;;;;;;;24.43;11.30;;;7.70;1.00;;;;;;5081639;28;20381;-64
2022/11/30 05:34:37;;;;;;;27.02;11.82;;;7.60;1.00;;;;;;5083701;28;20411;-64
2022/11/30 05:37:03;;;;;;;25.83;11.83;;;7.50;1.00;;;;;;5081270;28;20420;-64
2022/11/30 05:39:28;;;;;;;25.63;12.15;;;7.50;1.00;;;;;;5055986;28;20391;-64
2022/11/30 05:41:54;;;;;;;23.57;11.90;;;8.40;1.00;;;;;;5059070;28;20745;-64
2022/11/30 05:44:20;;;;;;;24.95;11.10;;;7.40;1.00;;;;;;5066629;28;20475;-64
2022/11/30 05:46:46;;;;;;;22.30;11.95;;;7.50;1.00;;;;;;5086642;28;20469;-64
2022/11/30 05:49:11;;;;;;;26.80;11.70;;;7.40;1.00;;;;;;5074427;28;20378;-64
2022/11/30 05:51:39;;;;;;;26.63;12.27;;;8.70;1.00;;;;;;5082865;28;20917;-64
2022/11/30 05:54:05;;;;;;;26.20;12.00;;;7.30;1.00;;;;;;5082212;28;20389;-64
2022/11/30 05:56:30;;;;;;;23.53;11.70;;;7.40;1.00;;;;;;5075104;28;20885;-64
2022/11/30 05:58:56;;;;;;;20.90;10.45;;;7.40;1.00;;;;;;5087004;28;20386;-64
2022/11/30 06:01:24;;;;;;;23.43;10.97;;;8.80;1.00;;;;;;5072858;28;20394;-64
2022/11/30 06:03:50;;;;;;;22.47;10.33;;;7.40;1.00;;;;;;5079007;28;20443;-66
2022/11/30 06:06:17;;;;;;;24.25;10.13;;;7.30;1.00;;;;;;5067590;28;20399;-66
2022/11/30 06:08:43;;;;;;;26.30;11.02;;;7.40;1.00;;;;;;5047436;28;20934;-65
2022/11/30 06:11:09;;;;;;;26.70;11.48;;;7.40;1.00;;;;;;5069149;28;20438;-65
2022/11/30 06:13:35;;;;;;;22.48;10.98;;;7.50;1.00;;;;;;5055083;28;20400;-66
2022/11/30 06:16:02;;;;;;;24.92;11.57;;;8.40;1.00;;;;;;5058773;28;20380;-66
2022/11/30 06:18:28;;;;;;;24.23;12.35;;;7.40;1.00;;;;;;5060266;28;20875;-65
2022/11/30 06:20:57;;;;;;;23.95;10.93;;;7.50;1.00;;;;;;5049735;28;20378;-65
2022/11/30 06:23:23;;;;;;;24.98;11.93;;;7.50;1.00;;;;;;5056425;28;20387;-65
2022/11/30 06:25:48;;;;;;;23.50;10.70;;;7.50;1.00;;;;;;5064887;28;20479;-65
2022/11/30 06:28:14;;;;;;;23.40;10.60;;;7.50;1.00;;;;;;5050228;28;20765;-65
2022/11/30 06:30:40;;;;;;;23.13;10.77;;;7.40;1.00;;;;;;5065358;28;20411;-66
2022/11/30 06:33:05;;;;;;;24.63;10.98;;;7.40;1.00;;;;;;5069427;28;20802;-66
2022/11/30 06:35:31;;;;;;;23.23;10.10;;;7.50;1.00;;;;;;5065075;28;20418;-65
2022/11/30 06:37:59;;;;;;;22.23;9.98;;;7.50;1.00;;;;;;5068969;28;20721;-65
2022/11/30 06:40:24;;;;;;;24.50;11.00;;;8.80;1.00;;;;;;5069094;28;20388;-65
2022/11/30 06:42:50;;;;;;;24.27;11.83;;;7.50;1.00;;;;;;5067338;28;20390;-66
2022/11/30 06:45:16;;;;;;;27.40;11.17;;;7.50;1.00;;;;;;5069698;28;20387;-66
2022/11/30 06:47:41;;;;;;;29.23;13.60;;;8.30;1.00;;;;;;5068939;28;20387;-66
2022/11/30 06:50:07;;;;;;;25.90;12.90;;;8.80;1.00;;;;;;5069546;28;20395;-66
2022/11/30 06:52:34;;;;;;;25.13;12.43;;;7.60;1.00;;;;;;5068628;28;20445;-65
2022/11/30 06:54:59;;;;;;;27.05;12.15;;;7.60;1.00;;;;;;5068393;28;20827;-66
2022/11/30 06:57:27;;;;;;;25.50;11.63;;;7.70;1.00;;;;;;5068846;28;20888;-65
2022/11/30 06:59:52;;;;;;;23.90;11.75;;;7.70;1.00;;;;;;5069585;28;20387;-65
2022/11/30 07:02:18;;;;;;;28.15;12.05;;;7.80;1.00;;;;;;5068725;28;20388;-60
2022/11/30 07:04:44;;;;;;;30.70;13.40;;;7.80;1.00;;;;;;5048704;28;21087;-67
2022/11/30 07:07:09;;;;;;;25.52;11.60;;;7.80;1.00;;;;;;5059156;28;20417;-67
2022/11/30 07:09:35;;;;;;;23.80;11.40;;;7.70;1.00;;;;;;5061334;28;20443;-60
2022/11/30 07:12:03;;;;;;;25.65;11.02;;;7.80;1.00;;;;;;5054687;28;20728;-63
2022/11/30 07:14:29;;;;;;;23.00;11.02;;;9.20;1.00;;;;;;5063114;28;20393;-60
2022/11/30 07:16:56;;;;;;;22.13;11.23;;;8.90;1.00;;;;;;5061109;28;20433;-61
2022/11/30 07:19:22;;;;;;;25.90;11.20;;;7.90;1.00;;;;;;5054157;28;20388;-60
2022/11/30 07:21:48;;;;;;;22.15;10.52;;;7.90;1.00;;;;;;5050823;28;20463;-60
2022/11/30 07:27:00;;;;;;;25.10;10.93;;;7.90;1.00;;;;;;5052336;28;20447;-65
2022/11/30 07:29:25;;;;;;;20.70;9.70;;;7.90;1.00;;;;;;5061972;28;20410;-64
2022/11/30 07:31:51;;;;;;;19.08;9.77;;;8.00;1.00;;;;;;5059687;28;20407;-64
2022/11/30 07:34:18;;;;;;;20.70;9.57;;;8.00;1.00;;;;;;5055516;28;20505;-65
2022/11/30 07:36:44;;;;;;;25.03;10.23;;;6.70;1.00;;;;;;5054714;28;20512;-65
2022/11/30 07:39:11;;;;;;;21.23;9.80;;;8.00;1.00;;;;;;5058072;28;20396;-65
2022/11/30 07:41:37;;;;;;;18.83;9.13;;;8.00;1.00;;;;;;5058639;28;20422;-65
2022/11/30 07:44:07;;;;;;;20.35;8.57;;;8.20;1.00;;;;;;5058454;28;20408;-65
2022/11/30 07:46:34;;;;;;;20.48;9.68;;;8.20;99.90;;;;;;5067265;28;20439;-65
2022/11/30 07:49:00;;;;;;;20.53;9.50;;;8.30;99.90;;;;;;5067362;28;20457;-64
2022/11/30 07:51:26;;;;;;;18.97;8.70;;;9.40;99.90;;;;;;5055269;28;20641;-65
2022/11/30 07:53:55;;;;;;;18.10;8.95;;;8.30;99.90;;;;;;5052785;28;20882;-63
2022/11/30 07:56:21;;;;;;;21.80;10.17;;;8.30;99.90;;;;;;5066892;28;20477;-65
2022/11/30 07:58:48;;;;;;;21.13;9.50;;;8.20;99.90;;;;;;5062334;28;20413;-62
2022/11/30 08:01:16;;;;;;;24.55;11.18;;;8.10;99.90;;;;;;5055066;28;20391;-62
2022/11/30 08:03:42;;;;;;;24.13;9.63;;;8.00;99.90;;;;;;5068658;28;20404;-62
2022/11/30 08:06:14;;;;;;;22.77;10.13;;;8.20;99.90;;;;;;5065810;28;20416;-63
2022/11/30 08:08:42;;;;;;;26.42;9.90;;;8.20;99.90;;;;;;5061712;28;20400;-62
2022/11/30 08:11:11;;;;;;;25.67;11.27;;;9.00;99.90;;;;;;5063737;28;20411;-63
2022/11/30 08:13:36;;;;;;;24.60;11.13;;;8.20;99.90;;;;;;5063981;28;20452;-63
2022/11/30 08:16:11;;;;;;;23.25;9.63;;;8.70;99.90;;;;;;5043435;28;20461;-63
2022/11/30 08:18:37;;;;;;;21.60;10.13;;;8.40;99.90;;;;;;5068978;28;20391;-63
2022/11/30 08:21:04;;;;;;;19.55;9.02;;;8.40;99.90;;;;;;5071140;28;20452;-63
2022/11/30 08:23:32;;;;;;;22.95;10.50;;;8.50;99.90;;;;;;5067596;28;20461;-63
2022/11/30 08:26:10;;;;;;;20.23;9.77;;;8.50;99.90;;;;;;5073467;28;20411;-63
2022/11/30 08:28:36;;;;;;;22.15;10.25;;;8.50;99.90;;;;;;5071043;28;20905;-63
2022/11/30 08:31:04;;;;;;;21.27;9.43;;;8.90;99.90;;;;;;5066935;28;20466;-63
2022/11/30 08:33:31;;;;;;;20.33;9.40;;;8.60;99.90;;;;;;5068924;28;20407;-63
2022/11/30 08:36:18;;;;;;;20.25;10.85;;;8.60;86.90;;;;;;5071258;28;20396;-63
2022/11/30 08:38:44;;;;;;;18.77;9.38;;;8.60;1.00;;;;;;5064918;28;20388;-63
2022/11/30 08:41:12;;;;;;;20.30;10.17;;;8.70;1.00;;;;;;5071342;28;20455;-63
2022/11/30 08:43:38;;;;;;;24.15;10.50;;;8.80;1.00;;;;;;5071238;28;20442;-63
2022/11/30 08:46:06;;;;;;;23.60;9.85;;;8.90;99.90;;;;;;5070343;28;20431;-63
2022/11/30 08:48:33;;;;;;;21.45;10.20;;;9.00;99.90;;;;;;5066283;28;20391;-64
2022/11/30 08:51:04;;;;;;;24.77;12.90;;;9.00;20.60;;;;;;5071478;28;20376;-64
2022/11/30 08:53:30;;;;;;;21.77;10.33;;;9.00;99.90;;;;;;5068791;28;20434;-66
2022/11/30 08:56:02;;;;;;;27.70;12.80;;;9.00;1.00;;;;;;5086191;28;20390;-64
2022/11/30 08:58:30;;;;;;;22.20;10.70;;;9.00;99.90;;;;;;5091211;28;20406;-64
2022/11/30 09:01:05;;;;;;;21.00;10.00;;;9.00;1.00;;;;;;5092214;28;20519;-64
2022/11/30 09:03:30;;;;;;;23.10;11.20;;;9.00;1.00;;;;;;5089855;28;20788;-64
2022/11/30 09:06:05;;;;;;;23.47;10.67;;;9.30;1.00;;;;;;5071875;28;20488;-64
2022/11/30 09:08:31;;;;;;;20.20;9.45;;;9.00;99.90;;;;;;5065883;28;20468;-64
2022/11/30 09:10:57;;;;;;;21.53;10.13;;;9.10;1.00;;;;;;5069226;28;20463;-64
2022/11/30 09:13:22;;;;;;;23.05;11.30;;;9.10;99.90;;;;;;5071797;28;20736;-64
2022/11/30 09:15:54;;;;;;;23.57;10.60;;;9.00;1.00;;;;;;5070183;28;20388;-64
2022/11/30 09:18:20;;;;;;;27.40;11.43;;;8.90;1.00;;;;;;5067991;28;20494;-64
2022/11/30 09:20:46;;;;;;;21.40;10.27;;;8.80;99.90;;;;;;5069790;28;20471;-64
2022/11/30 09:23:11;;;;;;;21.57;10.70;;;8.80;99.90;;;;;;5069180;28;20806;-64
2022/11/30 09:25:37;;;;;;;23.52;10.13;;;8.80;99.90;;;;;;5067570;28;20372;-64
2022/11/30 09:28:02;;;;;;;23.63;10.63;;;8.80;99.90;;;;;;5070724;28;20919;-63
2022/11/30 09:30:28;;;;;;;21.90;10.15;;;8.80;1.00;;;;;;5070294;28;20392;-64
2022/11/30 09:32:54;;;;;;;23.83;10.43;;;8.90;1.00;;;;;;5070000;28;20391;-63
2022/11/30 09:35:19;;;;;;;22.20;10.82;;;9.10;1.00;;;;;;5070039;28;20419;-65
2022/11/30 09:37:45;;;;;;;20.43;10.30;;;9.00;99.90;;;;;;5069293;28;20494;-66
2022/11/30 09:40:12;;;;;;;24.15;11.48;;;9.10;1.00;;;;;;5075464;28;20391;-64
2022/11/30 09:42:47;;;;;;;22.08;10.60;;;9.10;1.00;;;;;;5068764;28;20856;-64
2022/11/30 09:45:27;;;;;;;24.77;10.70;;;9.30;1.00;;;;;;5056815;28;20399;-65
2022/11/30 09:48:17;;;;;;;21.20;10.00;;;9.50;99.90;;;;;;5063322;28;20478;-65
2022/11/30 09:50:46;;;;;;;22.47;10.53;;;9.60;1.00;;;;;;5070335;28;20387;-64
2022/11/30 09:53:27;;;;;;;20.55;9.50;;;9.60;99.90;;;;;;5049742;28;20749;-64
2022/11/30 09:55:54;;;;;;;22.35;9.45;;;9.50;1.00;;;;;;5068922;28;20380;-64
2022/11/30 09:58:37;;;;;;;20.67;10.27;;;9.70;22.40;;;;;;5050609;28;20401;-64
2022/11/30 10:01:07;;;;;;;25.77;12.90;;;9.60;1.00;;;;;;5051071;28;20386;-64
2022/11/30 10:03:33;;;;;;;21.38;10.48;;;9.50;1.00;;;;;;5049371;28;20863;-64
2022/11/30 10:06:07;;;;;;;24.07;10.33;;;9.30;99.90;;;;;;5050131;28;20393;-64
2022/11/30 10:08:57;;;;;;;23.10;11.10;;;9.30;1.00;;;;;;5053816;28;20424;-64
2022/11/30 10:11:43;;;;;;;20.88;10.60;;;9.30;99.90;;;;;;5075621;28;20419;-65
2022/11/30 10:14:30;;;;;;;26.17;14.50;;;9.10;99.90;;;;;;5070127;28;20392;-64
2022/11/30 10:17:14;;;;;;;27.55;13.18;;;9.10;1.00;;;;;;5067766;28;20507;-63
2022/11/30 10:19:48;;;;;;;21.08;9.80;;;9.00;1.00;;;;;;5069361;28;20400;-64
2022/11/30 10:22:50;;;;;;;24.83;10.93;;;9.00;99.90;;;;;;5070433;28;20944;-64
2022/11/30 10:25:21;;;;;;;23.42;11.65;;;9.00;1.00;;;;;;5049530;28;20401;-64
2022/11/30 10:27:59;;;;;;;23.92;11.50;;;8.90;1.00;;;;;;5049396;28;20966;-64
2022/11/30 10:30:32;;;;;;;27.45;11.98;;;9.10;99.90;;;;;;5050118;28;20386;-64
2022/11/30 10:33:08;;;;;;;26.50;13.95;;;9.30;99.90;;;;;;5050102;28;20413;-64
2022/11/30 10:35:39;;;;;;;24.00;10.88;;;9.40;1.00;;;;;;5062133;28;20602;-64
2022/11/30 10:38:18;;;;;;;25.48;11.55;;;9.30;1.00;;;;;;5069773;28;20848;-64
2022/11/30 10:41:03;;;;;;;25.10;11.23;;;9.20;1.00;;;;;;5069094;28;20390;-64
2022/11/30 10:43:37;;;;;;;25.05;12.35;;;9.10;1.00;;;;;;5069439;28;20406;-64
2022/11/30 10:46:02;;;;;;;24.50;11.30;;;9.20;1.00;;;;;;5069794;28;20868;-64
2022/11/30 10:48:36;;;;;;;26.25;11.65;;;9.20;1.00;;;;;;5069672;28;20372;-64
2022/11/30 10:51:03;;;;;;;23.98;11.15;;;9.20;1.00;;;;;;5070241;28;20383;-64
2022/11/30 10:53:30;;;;;;;23.27;9.85;;;9.20;1.00;;;;;;5068992;28;20375;-64
2022/11/30 10:56:02;;;;;;;22.33;9.75;;;9.30;1.00;;;;;;5069548;28;20457;-65
2022/11/30 10:58:51;;;;;;;24.75;11.32;;;9.40;1.00;;;;;;5068092;28;20799;-64
2022/11/30 11:01:38;;;;;;;26.20;11.60;;;9.50;1.00;;;;;;5069033;28;20454;-64
2022/11/30 11:04:17;;;;;;;21.02;8.35;;;9.30;99.90;;;;;;5069665;28;20898;-64
2022/11/30 11:06:52;;;;;;;21.15;8.32;;;9.30;99.90;;;;;;5068954;28;20395;-64
2022/11/30 11:09:35;;;;;;;20.80;8.90;;;9.30;10.60;;;;;;5067039;28;20747;-64
2022/11/30 11:12:03;;;;;;;19.80;8.93;;;9.20;1.00;;;;;;5077599;28;20387;-64
2022/11/30 11:14:29;;;;;;;20.13;8.80;;;9.10;1.00;;;;;;5058221;28;20388;-64
2022/11/30 11:17:01;;;;;;;19.40;9.45;;;9.00;1.00;;;;;;5069226;28;20410;-64
2022/11/30 11:19:41;;;;;;;20.95;8.55;;;9.20;1.00;;;;;;5070661;28;20392;-64
2022/11/30 11:22:22;;;;;;;22.33;8.87;;;9.00;1.00;;;;;;5069156;28;20441;-65
2022/11/30 11:24:50;;;;;;;19.33;8.68;;;8.90;1.00;;;;;;5070215;28;20949;-64
2022/11/30 11:27:27;;;;;;;17.95;7.63;;;8.90;1.00;;;;;;5074089;28;20384;-64
2022/11/30 11:30:07;;;;;;;16.15;7.78;;;8.90;1.00;;;;;;5070337;28;20455;-64
2022/11/30 11:32:33;;;;;;;16.38;7.07;;;8.90;1.00;;;;;;5070159;28;20396;-64
2022/11/30 11:34:59;;;;;;;20.08;8.00;;;8.90;1.00;;;;;;5073400;28;20403;-64
2022/11/30 11:37:32;;;;;;;15.50;7.30;;;8.90;1.00;;;;;;5072877;28;20803;-63
2022/11/30 11:40:07;;;;;;;17.90;7.53;;;8.90;1.00;;;;;;5071226;28;20414;-63
2022/11/30 11:42:53;;;;;;;19.27;7.63;;;8.90;1.00;;;;;;5051798;28;20791;-65
2022/11/30 11:45:27;;;;;;;15.50;7.70;;;8.80;1.00;;;;;;5071605;28;20414;-64
2022/11/30 11:48:03;;;;;;;17.35;7.75;;;8.90;1.00;;;;;;5069968;28;20379;-64
2022/11/30 11:50:37;;;;;;;19.92;8.35;;;8.90;1.00;;;;;;5072121;28;20888;-64
2022/11/30 11:53:35;;;;;;;20.08;9.05;;;8.90;1.00;;;;;;5072476;28;20384;-64
2022/11/30 11:56:30;;;;;;;16.88;7.97;;;9.00;1.00;;;;;;5071499;28;20395;-64
2022/11/30 11:59:06;;;;;;;19.60;8.30;;;8.90;1.00;;;;;;5070373;28;20388;-63
2022/11/30 12:01:59;;;;;;;18.15;7.65;;;9.00;1.00;;;;;;5069246;28;20390;-64
2022/11/30 12:04:53;;;;;;;20.10;8.10;;;9.00;1.00;;;;;;5072186;28;20418;-64
2022/11/30 12:07:21;;;;;;;20.80;9.10;;;9.00;1.00;;;;;;5054688;28;20424;-63
2022/11/30 12:10:18;;;;;;;22.15;10.07;;;9.10;1.00;;;;;;5072043;28;20490;-64
2022/11/30 12:12:44;;;;;;;24.75;11.30;;;9.10;1.00;;;;;;4984428;28;20387;-64
2022/11/30 12:15:13;;;;;;;20.27;9.40;;;9.00;1.00;;;;;;5074857;28;20515;-63
2022/11/30 12:17:39;;;;;;;21.63;9.77;;;9.00;1.00;;;;;;5072886;28;20410;-64
2022/11/30 12:20:22;;;;;;;19.97;9.20;;;9.10;1.00;;;;;;5058683;28;20447;-63
2022/11/30 12:23:09;;;;;;;23.25;11.25;;;9.10;1.00;;;;;;5059727;28;20495;-63
2022/11/30 12:25:49;;;;;;;21.42;9.65;;;9.20;1.00;;;;;;5062311;28;20385;-63
2022/11/30 12:28:32;;;;;;;19.52;9.77;;;9.30;1.00;;;;;;5065787;28;20411;-64
2022/11/30 12:31:14;;;;;;;23.77;9.52;;;9.30;1.00;;;;;;5071723;28;20394;-63
2022/11/30 12:34:12;;;;;;;23.42;9.70;;;9.40;1.00;;;;;;5067225;28;20469;-64
2022/11/30 12:37:10;;;;;;;21.27;9.50;;;9.40;1.00;;;;;;5071560;28;20907;-64
2022/11/30 12:39:46;;;;;;;22.55;9.20;;;9.40;1.00;;;;;;5071183;28;20465;-63
2022/11/30 12:42:33;;;;;;;20.40;9.23;;;9.30;1.00;;;;;;5071491;28;20433;-63
2022/11/30 12:45:11;;;;;;;18.45;7.80;;;9.30;1.00;;;;;;5072084;28;20435;-63
2022/11/30 12:48:05;;;;;;;19.80;8.10;;;9.30;1.00;;;;;;5071342;28;20384;-64
2022/11/30 12:51:05;;;;;;;18.20;7.40;;;9.10;1.00;;;;;;5065203;28;20395;-63
2022/11/30 12:53:45;;;;;;;21.37;9.10;;;9.00;1.00;;;;;;5065418;28;20399;-65
2022/11/30 12:56:33;;;;;;;19.55;8.77;;;9.10;1.00;;;;;;5068067;28;20733;-64
2022/11/30 12:59:20;;;;;;;18.25;7.95;;;9.20;1.00;;;;;;5064775;28;20407;-62
2022/11/30 13:02:10;;;;;;;18.83;8.45;;;9.20;1.00;;;;;;5069221;28;20434;-62
2022/11/30 13:04:42;;;;;;;19.47;8.60;;;9.20;1.00;;;;;;5067690;28;20400;-62
2022/11/30 13:07:26;;;;;;;20.67;8.93;;;9.20;1.00;;;;;;5069886;28;20456;-62